Time,TemperatureF,DewpointF,PressureIn,WindDirection,WindDirectionDegrees,WindSpeedMPH,WindSpeedGustMPH,Humidity,HourlyPrecipIn,Conditions,Clouds,dailyrainin,SoftwareType,DateUTC
2013-02-01 12:03:00,0.0,-15.0,-100.00,SW,230,6.0,9.0,48,0.00,,,0.00,,2013-02-01 18:03:00,
2013-02-01 12:12:00,-1.0,-17.0,-100.00,SSW,200,7.0,10.0,48,0.00,,,0.00,,2013-02-01 18:12:00,
2013-02-01 12:22:00,-1.0,-15.0,-100.00,WSW,240,4.0,7.0,49,0.00,,,0.00,,2013-02-01 18:22:00,
2013-02-01 12:32:00,0.0,-15.0,-100.00,SSW,210,4.0,7.0,49,0.00,,,0.00,,2013-02-01 18:32:00,
2013-02-01 12:42:00,-2.0,-17.0,-100.00,SSW,205,7.0,9.0,49,0.00,,,0.00,,2013-02-01 18:42:00,
2013-02-01 12:52:00,-1.0,-15.0,-100.00,SSW,205,4.0,9.0,49,0.00,,,0.00,,2013-02-01 18:52:00,
2013-02-01 13:02:00,0.0,-15.0,-100.00,SSW,205,3.0,7.0,49,0.00,,,0.00,,2013-02-01 19:02:00,
2013-02-01 13:11:00,0.0,-15.0,-100.00,SW,230,3.0,7.0,49,0.00,,,0.00,,2013-02-01 19:11:00,
2013-02-01 13:21:00,1.0,-15.0,-100.00,SSW,195,6.0,9.0,49,0.00,,,0.00,,2013-02-01 19:21:00,
2013-02-01 13:32:00,1.0,-15.0,-100.00,SSW,210,4.0,9.0,48,0.00,,,0.00,,2013-02-01 19:32:00,
2013-02-01 13:41:00,1.0,-15.0,-100.00,SSW,195,6.0,11.0,47,0.00,,,0.00,,2013-02-01 19:41:00,
2013-02-01 13:51:00,1.0,-15.0,-100.00,SSW,195,7.0,10.0,47,0.00,,,0.00,,2013-02-01 19:51:00,
2013-02-01 14:02:00,1.0,-15.0,-100.00,SSW,195,7.0,11.0,48,0.00,,,0.00,,2013-02-01 20:02:00,
2013-02-01 14:11:00,1.0,-13.0,-100.00,SSW,195,5.0,9.0,48,0.00,,,0.00,,2013-02-01 20:11:00,
2013-02-01 14:21:00,1.0,-13.0,-100.00,SSW,200,7.0,9.0,49,0.00,,,0.00,,2013-02-01 20:21:00,
2013-02-01 14:31:00,1.0,-13.0,-100.00,South,175,4.0,9.0,49,0.00,,,0.00,,2013-02-01 20:31:00,
2013-02-01 14:41:00,0.0,-13.0,-100.00,South,190,7.0,11.0,50,0.00,,,0.00,,2013-02-01 20:41:00,
2013-02-01 14:52:00,0.0,-13.0,-100.00,SSW,205,6.0,7.0,51,0.00,,,0.00,,2013-02-01 20:52:00,
2013-02-01 15:02:00,1.0,-13.0,-100.00,SSW,195,5.0,7.0,52,0.00,,,0.00,,2013-02-01 21:02:00,
2013-02-01 15:11:00,1.0,-13.0,-100.00,SSW,195,5.0,7.0,52,0.00,,,0.00,,2013-02-01 21:11:00,
2013-02-01 15:21:00,1.0,-13.0,-100.00,SSW,195,5.0,7.0,52,0.00,,,0.00,,2013-02-01 21:21:00,
2013-02-01 15:32:00,1.0,-13.0,-100.00,SSW,195,5.0,7.0,52,0.00,,,0.00,,2013-02-01 21:32:00,
2013-02-01 15:41:00,1.0,-13.0,-100.00,SSW,195,5.0,7.0,52,0.00,,,0.00,,2013-02-01 21:41:00,